Time;durP1;ratioP1;P1;durP2;ratioP2;P2;SDS_P1;SDS_P2;PMS_P1;PMS_P2;Temp;Humidity;BMP_temperature;BMP_pressure;BME280_temperature;BME280_humidity;BME280_pressure;Samples;Min_cycle;Max_cycle;Signal;HPM_P1;HPM_P2
2023/03/17 00:01:50;;;;;;;2.88;2.35;;;11.20;75.90;;;;;;4902119;29;20499;-81
2023/03/17 00:04:18;;;;;;;3.35;2.50;;;11.10;75.90;;;;;;4917828;29;20024;-83
2023/03/17 00:06:45;;;;;;;3.35;2.40;;;11.10;75.90;;;;;;4902813;29;20409;-81
2023/03/17 00:09:16;;;;;;;3.25;2.60;;;11.10;75.90;;;;;;4917652;29;20031;-85
2023/03/17 00:11:43;;;;;;;3.38;2.58;;;11.10;75.90;;;;;;4933596;29;20032;-85
2023/03/17 00:14:09;;;;;;;3.03;2.45;;;11.10;75.90;;;;;;4919420;29;20032;-80
2023/03/17 00:16:41;;;;;;;3.45;2.55;;;11.10;75.90;;;;;;4917576;29;20032;-81
2023/03/17 00:19:18;;;;;;;3.50;2.67;;;11.10;75.90;;;;;;4902083;29;20381;-80
2023/03/17 00:21:47;;;;;;;3.30;2.63;;;11.10;75.90;;;;;;4903754;29;20047;-82
2023/03/17 00:24:13;;;;;;;3.03;2.53;;;11.10;75.90;;;;;;4901626;29;20103;-82
2023/03/17 00:26:39;;;;;;;3.72;2.70;;;11.00;75.90;;;;;;4901530;29;20477;-81
2023/03/17 00:29:05;;;;;;;3.78;2.65;;;11.00;75.90;;;;;;4901868;29;20032;-81
2023/03/17 00:31:33;;;;;;;3.35;2.53;;;11.00;75.90;;;;;;4917380;29;20043;-80
2023/03/17 00:33:59;;;;;;;3.03;2.40;;;11.00;75.90;;;;;;4918571;29;20033;-81
2023/03/17 00:36:27;;;;;;;4.45;2.70;;;11.00;75.90;;;;;;4901557;29;20389;-81
2023/03/17 00:38:54;;;;;;;3.00;2.55;;;11.00;75.90;;;;;;4901699;29;20043;-84
2023/03/17 00:41:21;;;;;;;3.17;2.50;;;11.00;76.20;;;;;;4901463;29;20040;-80
2023/03/17 00:43:47;;;;;;;3.75;2.42;;;11.00;76.00;;;;;;4918387;29;20052;-81
2023/03/17 00:46:34;;;;;;;4.22;2.67;;;10.90;75.90;;;;;;4901831;29;20044;-80
2023/03/17 00:49:15;;;;;;;3.17;2.40;;;10.90;76.00;;;;;;4917305;29;20534;-80
2023/03/17 00:51:42;;;;;;;3.65;2.53;;;10.90;75.90;;;;;;4901714;29;20093;-81
2023/03/17 00:54:09;;;;;;;2.63;2.42;;;10.90;75.90;;;;;;4918144;29;20454;-81
2023/03/17 00:56:37;;;;;;;2.95;2.50;;;10.90;76.00;;;;;;4885546;29;20059;-81
2023/03/17 00:59:04;;;;;;;2.83;2.25;;;10.90;76.00;;;;;;4885456;29;20394;-82
2023/03/17 01:01:30;;;;;;;3.78;2.60;;;10.90;76.00;;;;;;4916139;29;20036;-81
2023/03/17 01:03:56;;;;;;;2.55;2.33;;;10.90;76.00;;;;;;4932763;29;20485;-81
2023/03/17 01:06:22;;;;;;;3.13;2.55;;;10.80;76.00;;;;;;4916693;29;20382;-81
2023/03/17 01:08:48;;;;;;;2.88;2.53;;;10.80;76.00;;;;;;4900900;29;20036;-82
2023/03/17 01:11:20;;;;;;;3.42;2.60;;;10.80;76.00;;;;;;4901148;29;20071;-81
2023/03/17 01:13:47;;;;;;;3.08;2.30;;;10.80;76.00;;;;;;4932169;29;20554;-83
2023/03/17 01:16:13;;;;;;;3.80;2.80;;;10.80;76.00;;;;;;4932011;29;20118;-81
2023/03/17 01:18:39;;;;;;;3.58;2.40;;;10.80;76.00;;;;;;4916423;29;20119;-81
2023/03/17 01:21:06;;;;;;;3.63;2.63;;;10.80;76.10;;;;;;4916607;29;20044;-81
2023/03/17 01:23:33;;;;;;;2.60;2.15;;;10.70;76.00;;;;;;4915923;29;20036;-80
2023/03/17 01:25:58;;;;;;;4.75;2.63;;;10.70;76.00;;;;;;4900566;29;20032;-82
2023/03/17 01:28:24;;;;;;;3.63;2.83;;;10.70;76.00;;;;;;4901225;29;20525;-82
2023/03/17 01:30:51;;;;;;;3.20;2.72;;;10.70;76.00;;;;;;4900528;29;20466;-81
2023/03/17 01:33:17;;;;;;;3.50;2.45;;;10.70;76.10;;;;;;4900415;29;20031;-82
2023/03/17 01:35:44;;;;;;;2.78;2.38;;;10.70;76.10;;;;;;4900309;29;20032;-81
2023/03/17 01:38:10;;;;;;;3.22;2.58;;;10.70;76.10;;;;;;4900666;29;20028;-80
2023/03/17 01:40:44;;;;;;;3.22;2.45;;;10.70;76.10;;;;;;4885218;29;20036;-81
2023/03/17 01:43:09;;;;;;;3.33;2.55;;;10.70;76.10;;;;;;4900578;29;20028;-82
2023/03/17 01:46:10;;;;;;;5.68;2.85;;;10.60;76.10;;;;;;4915755;29;20034;-80
2023/03/17 01:48:57;;;;;;;2.65;2.20;;;10.60;76.10;;;;;;4931929;29;20158;-80
2023/03/17 01:51:30;;;;;;;3.17;2.40;;;10.60;76.10;;;;;;4932198;29;20076;-82
2023/03/17 01:53:57;;;;;;;3.05;2.42;;;10.60;76.20;;;;;;4915887;29;20433;-83
2023/03/17 01:56:23;;;;;;;3.20;2.45;;;10.60;76.20;;;;;;4916048;29;20036;-80
2023/03/17 01:58:52;;;;;;;3.13;2.30;;;10.50;76.20;;;;;;4884673;29;20028;-80
2023/03/17 02:01:27;;;;;;;2.42;2.05;;;10.60;76.20;;;;;;4915978;29;20048;-82
2023/03/17 02:03:54;;;;;;;3.58;2.58;;;10.50;76.20;;;;;;4900237;29;20039;-80
2023/03/17 02:06:20;;;;;;;2.72;2.20;;;10.50;76.20;;;;;;4931720;29;20029;-80
2023/03/17 02:08:46;;;;;;;3.63;2.67;;;10.50;76.20;;;;;;4915826;29;20115;-80
2023/03/17 02:11:13;;;;;;;2.97;2.40;;;10.50;76.20;;;;;;4915964;29;20044;-82
2023/03/17 02:13:40;;;;;;;3.05;2.20;;;10.50;76.20;;;;;;4931315;29;20091;-80
2023/03/17 02:16:11;;;;;;;3.53;2.65;;;10.40;76.20;;;;;;4899735;29;20024;-81
2023/03/17 02:18:38;;;;;;;3.30;2.33;;;10.50;76.30;;;;;;4931864;29;20433;-82
2023/03/17 02:21:32;;;;;;;3.40;2.50;;;10.50;76.30;;;;;;4916166;29;20067;-80
2023/03/17 02:24:06;;;;;;;2.60;2.28;;;10.40;76.30;;;;;;4931622;29;20056;-84
2023/03/17 02:26:35;;;;;;;2.70;2.40;;;10.40;76.20;;;;;;4918354;29;20028;-81
2023/03/17 02:29:02;;;;;;;3.08;2.30;;;10.40;76.30;;;;;;4903730;29;20039;-81
2023/03/17 02:31:29;;;;;;;2.78;2.40;;;10.40;76.30;;;;;;4919361;29;20135;-82
2023/03/17 02:33:55;;;;;;;3.00;2.20;;;10.40;76.40;;;;;;4919551;29;20112;-81
2023/03/17 02:36:21;;;;;;;3.10;2.60;;;10.40;76.40;;;;;;4903842;29;20529;-80
2023/03/17 02:38:47;;;;;;;3.13;2.45;;;10.30;76.40;;;;;;4903868;29;20028;-81
2023/03/17 02:41:13;;;;;;;3.58;2.40;;;10.30;76.40;;;;;;4919335;29;20545;-81
2023/03/17 02:43:40;;;;;;;3.05;2.30;;;10.30;76.40;;;;;;4903392;29;20395;-80
2023/03/17 02:46:06;;;;;;;3.17;2.40;;;10.30;76.40;;;;;;4903346;29;20060;-81
2023/03/17 02:48:35;;;;;;;2.63;2.10;;;10.30;76.40;;;;;;4887756;29;20111;-80
2023/03/17 02:51:02;;;;;;;3.42;2.50;;;10.30;76.40;;;;;;4935674;29;20032;-81
2023/03/17 02:53:27;;;;;;;2.88;2.28;;;10.30;76.40;;;;;;4902685;29;20048;-80
2023/03/17 02:55:53;;;;;;;3.17;2.50;;;10.30;76.40;;;;;;4935524;29;20335;-81
2023/03/17 02:58:19;;;;;;;3.78;2.33;;;10.20;76.40;;;;;;4919225;29;20035;-81
2023/03/17 03:00:45;;;;;;;2.70;2.22;;;10.30;76.40;;;;;;4904057;29;20047;-81
2023/03/17 03:03:11;;;;;;;3.03;2.20;;;10.20;76.40;;;;;;4903222;29;20032;-81
2023/03/17 03:05:37;;;;;;;3.58;2.55;;;10.20;76.40;;;;;;4903210;29;20044;-80
2023/03/17 03:08:03;;;;;;;2.63;2.20;;;10.20;76.40;;;;;;4903489;29;20346;-85
2023/03/17 03:10:28;;;;;;;2.60;2.22;;;10.20;76.50;;;;;;4918669;29;20060;-81
2023/03/17 03:12:54;;;;;;;2.67;2.17;;;10.20;76.40;;;;;;4903202;29;20062;-81
2023/03/17 03:15:20;;;;;;;2.55;2.13;;;10.20;77.10;;;;;;4887339;29;20029;-81
2023/03/17 03:17:46;;;;;;;3.30;2.35;;;10.10;76.40;;;;;;4934662;29;20024;-80
2023/03/17 03:20:13;;;;;;;2.85;2.45;;;10.20;76.50;;;;;;4934758;29;20051;-81
2023/03/17 03:22:39;;;;;;;3.65;2.55;;;10.10;76.40;;;;;;4934444;29;20083;-81
2023/03/17 03:25:07;;;;;;;3.42;2.40;;;10.10;76.40;;;;;;4934431;29;20036;-81
2023/03/17 03:27:33;;;;;;;2.92;2.25;;;10.10;76.40;;;;;;4887873;29;20092;-82
2023/03/17 03:30:00;;;;;;;2.70;2.25;;;10.10;76.40;;;;;;4918464;29;20046;-81
2023/03/17 03:32:26;;;;;;;2.55;2.28;;;10.10;76.40;;;;;;4902783;29;20032;-80
2023/03/17 03:34:52;;;;;;;4.00;2.53;;;10.10;76.40;;;;;;4918599;29;20040;-82
2023/03/17 03:37:18;;;;;;;3.50;2.50;;;10.10;76.50;;;;;;4918056;29;20024;-81
2023/03/17 03:39:44;;;;;;;3.15;2.40;;;10.10;76.40;;;;;;4902565;29;20037;-83
2023/03/17 03:42:10;;;;;;;3.33;2.30;;;10.10;76.50;;;;;;4918238;29;20495;-81
2023/03/17 03:44:36;;;;;;;3.53;2.45;;;10.00;76.40;;;;;;4902322;29;20122;-81
2023/03/17 03:47:02;;;;;;;3.35;2.50;;;10.00;76.40;;;;;;4918335;29;20115;-80
2023/03/17 03:49:28;;;;;;;2.30;2.10;;;10.10;76.40;;;;;;4917670;29;20044;-81
2023/03/17 03:51:53;;;;;;;3.00;2.28;;;10.00;76.40;;;;;;4902389;29;20036;-85
2023/03/17 03:54:19;;;;;;;2.88;2.13;;;10.00;76.40;;;;;;4902700;29;20079;-80
2023/03/17 03:56:45;;;;;;;2.53;2.10;;;10.00;76.40;;;;;;4918324;29;20028;-81
2023/03/17 03:59:11;;;;;;;2.75;2.17;;;10.00;76.40;;;;;;4902096;29;20043;-80
2023/03/17 04:01:38;;;;;;;2.58;2.20;;;10.00;76.40;;;;;;4901832;29;20033;-80
2023/03/17 04:04:04;;;;;;;3.33;2.38;;;10.00;76.40;;;;;;4901887;29;20582;-80
2023/03/17 04:06:30;;;;;;;3.65;2.33;;;10.00;76.50;;;;;;4917576;29;20040;-81
2023/03/17 04:08:56;;;;;;;3.10;2.30;;;10.00;76.40;;;;;;4902075;29;20084;-84
2023/03/17 04:11:22;;;;;;;2.55;2.17;;;10.00;76.40;;;;;;4901644;29;20045;-82
2023/03/17 04:13:47;;;;;;;2.75;2.33;;;10.00;76.40;;;;;;4918523;29;20476;-81
2023/03/17 04:16:13;;;;;;;2.80;2.28;;;10.00;76.50;;;;;;4917605;29;20056;-80
2023/03/17 04:18:40;;;;;;;2.53;2.25;;;9.90;76.40;;;;;;4917604;29;20032;-82
2023/03/17 04:21:07;;;;;;;3.17;2.35;;;9.90;76.50;;;;;;4917694;29;20413;-82
2023/03/17 04:23:33;;;;;;;3.08;2.30;;;9.90;76.50;;;;;;4901730;29;20096;-81
2023/03/17 04:25:58;;;;;;;2.95;2.22;;;9.90;76.50;;;;;;4933414;29;20390;-81
2023/03/17 04:28:24;;;;;;;3.10;2.40;;;9.90;76.50;;;;;;4918854;29;20039;-82
2023/03/17 04:30:50;;;;;;;3.42;2.53;;;9.90;76.50;;;;;;4901438;29;20573;-83
2023/03/17 04:33:16;;;;;;;2.78;2.25;;;9.90;76.50;;;;;;4901479;29;20042;-81
2023/03/17 04:35:42;;;;;;;2.50;2.30;;;9.90;76.50;;;;;;4933127;29;20036;-85
2023/03/17 04:38:10;;;;;;;2.90;2.20;;;9.90;76.50;;;;;;4901341;29;20032;-81
2023/03/17 04:40:36;;;;;;;2.90;2.22;;;9.80;76.50;;;;;;4918459;29;20036;-80
2023/03/17 04:43:02;;;;;;;3.20;2.33;;;9.80;76.50;;;;;;4932912;29;20099;-83
2023/03/17 04:45:27;;;;;;;3.08;2.20;;;9.80;76.50;;;;;;4917085;29;20035;-80
2023/03/17 04:47:53;;;;;;;2.58;2.30;;;9.80;76.50;;;;;;4900972;29;20349;-81
2023/03/17 04:50:19;;;;;;;3.22;2.25;;;9.80;76.50;;;;;;4900899;29;20067;-82
2023/03/17 04:52:45;;;;;;;3.05;2.40;;;9.80;76.50;;;;;;4900909;29;20040;-82
2023/03/17 04:55:10;;;;;;;2.42;2.15;;;9.80;76.50;;;;;;4916499;29;20501;-82
2023/03/17 04:57:36;;;;;;;2.17;1.98;;;9.80;76.50;;;;;;4900990;29;20032;-80
2023/03/17 05:00:04;;;;;;;3.38;2.20;;;9.80;76.60;;;;;;4917003;29;20036;-81
2023/03/17 05:02:30;;;;;;;2.58;2.03;;;9.80;76.60;;;;;;4932279;29;20087;-82
2023/03/17 05:04:56;;;;;;;3.67;2.40;;;9.80;76.70;;;;;;4917457;29;20122;-81
2023/03/17 05:07:21;;;;;;;2.67;2.20;;;9.70;76.60;;;;;;4901159;29;20037;-80
2023/03/17 05:09:47;;;;;;;2.67;2.03;;;9.80;76.70;;;;;;4932877;29;20434;-84
2023/03/17 05:12:13;;;;;;;2.88;2.45;;;9.70;76.70;;;;;;4901054;29;20413;-83
2023/03/17 05:14:39;;;;;;;3.00;2.20;;;9.70;76.70;;;;;;4900876;29;20016;-80
2023/03/17 05:17:06;;;;;;;3.15;2.50;;;9.70;76.70;;;;;;4916272;29;20036;-80
2023/03/17 05:19:31;;;;;;;3.75;2.25;;;9.70;76.70;;;;;;4900395;29;20457;-81
2023/03/17 05:21:57;;;;;;;2.72;2.30;;;9.70;76.70;;;;;;4931966;29;20032;-80
2023/03/17 05:24:23;;;;;;;2.88;2.17;;;9.60;76.60;;;;;;4900409;29;20035;-79
2023/03/17 05:26:49;;;;;;;2.47;2.10;;;9.70;76.70;;;;;;4916371;29;20028;-80
2023/03/17 05:29:14;;;;;;;2.63;2.10;;;9.70;76.70;;;;;;4901107;29;20349;-83
2023/03/17 05:31:41;;;;;;;2.53;1.92;;;9.60;76.70;;;;;;4916151;29;20040;-82
2023/03/17 05:34:06;;;;;;;2.80;2.10;;;9.70;76.80;;;;;;4900390;29;20107;-82
2023/03/17 05:36:32;;;;;;;3.00;2.35;;;9.70;76.80;;;;;;4931848;29;20528;-82
2023/03/17 05:38:58;;;;;;;2.70;2.20;;;9.60;76.70;;;;;;4900845;29;20028;-82
2023/03/17 05:41:25;;;;;;;2.85;2.20;;;9.60;76.70;;;;;;4917925;29;20107;-86
2023/03/17 05:43:51;;;;;;;2.47;2.17;;;9.60;76.70;;;;;;4916636;29;20032;-82
2023/03/17 05:46:16;;;;;;;2.22;2.03;;;9.60;76.70;;;;;;4900209;29;20358;-81
2023/03/17 05:48:42;;;;;;;2.30;2.10;;;9.60;76.70;;;;;;4916615;29;20103;-83
2023/03/17 05:51:08;;;;;;;3.25;2.15;;;9.60;76.80;;;;;;4900100;29;20486;-80
2023/03/17 05:53:35;;;;;;;2.55;2.13;;;9.60;76.80;;;;;;4931755;29;20056;-81
2023/03/17 05:56:01;;;;;;;2.33;2.13;;;9.60;76.80;;;;;;4916896;29;20164;-82
2023/03/17 05:58:26;;;;;;;2.83;2.20;;;9.60;76.80;;;;;;4900181;29;20039;-80
2023/03/17 06:00:52;;;;;;;2.88;2.40;;;9.60;76.80;;;;;;4899520;29;20035;-83
2023/03/17 06:03:18;;;;;;;2.47;2.25;;;9.60;76.80;;;;;;4899743;29;20036;-80
2023/03/17 06:05:44;;;;;;;3.22;2.25;;;9.60;76.80;;;;;;4915454;29;20040;-81
2023/03/17 06:08:10;;;;;;;4.45;2.38;;;9.60;76.80;;;;;;4931000;29;20107;-80
2023/03/17 06:10:36;;;;;;;4.38;2.63;;;9.50;76.80;;;;;;4931220;29;20036;-79
2023/03/17 06:13:03;;;;;;;3.08;2.10;;;9.60;76.80;;;;;;4899661;29;20032;-80
2023/03/17 06:15:29;;;;;;;2.53;2.13;;;9.50;76.80;;;;;;4915489;29;20088;-81
2023/03/17 06:17:55;;;;;;;3.00;2.35;;;9.50;76.80;;;;;;4899842;29;20020;-80
2023/03/17 06:20:20;;;;;;;2.50;2.00;;;9.50;76.80;;;;;;4899865;29;20055;-80
2023/03/17 06:22:46;;;;;;;3.05;2.30;;;9.50;76.80;;;;;;4899620;29;20080;-80
2023/03/17 06:25:13;;;;;;;2.65;2.15;;;9.50;76.90;;;;;;4899786;29;20036;-80
2023/03/17 06:27:38;;;;;;;2.47;2.20;;;9.50;76.90;;;;;;4900027;29;20462;-80
2023/03/17 06:30:07;;;;;;;2.60;2.33;;;9.50;76.80;;;;;;4900012;29;20043;-79
2023/03/17 06:32:34;;;;;;;2.42;2.10;;;9.50;76.80;;;;;;4931508;29;20180;-80
2023/03/17 06:35:00;;;;;;;3.47;2.40;;;9.50;76.90;;;;;;4915458;29;20032;-80
2023/03/17 06:37:26;;;;;;;3.10;2.22;;;9.50;76.90;;;;;;4915663;29;20032;-79
2023/03/17 06:39:52;;;;;;;2.53;2.17;;;9.50;76.90;;;;;;4884142;29;20064;-81
2023/03/17 06:42:18;;;;;;;3.17;2.35;;;9.50;76.80;;;;;;4915180;29;20052;-81
2023/03/17 06:44:44;;;;;;;3.22;2.25;;;9.50;76.90;;;;;;4915777;29;20040;-80
2023/03/17 06:47:10;;;;;;;3.17;2.42;;;9.40;76.80;;;;;;4915423;29;20060;-79
2023/03/17 06:49:36;;;;;;;2.97;2.25;;;9.40;76.90;;;;;;4915548;29;20065;-80
2023/03/17 06:52:01;;;;;;;3.20;2.42;;;9.50;76.90;;;;;;4899588;29;20036;-80
2023/03/17 06:54:27;;;;;;;2.38;2.05;;;9.40;76.90;;;;;;4916659;29;20155;-79
2023/03/17 06:56:53;;;;;;;2.45;2.22;;;9.50;77.00;;;;;;4915059;29;20028;-79
2023/03/17 06:59:20;;;;;;;2.90;2.28;;;9.40;76.90;;;;;;4915324;29;20040;-81
2023/03/17 07:01:48;;;;;;;3.05;2.40;;;9.40;76.90;;;;;;4899759;29;20032;-80
2023/03/17 07:04:14;;;;;;;3.63;2.15;;;9.40;76.90;;;;;;4915791;29;20036;-82
2023/03/17 07:06:40;;;;;;;2.75;2.38;;;9.40;77.00;;;;;;4899543;29;20032;-81
2023/03/17 07:09:06;;;;;;;3.15;2.50;;;9.40;77.70;;;;;;4899906;29;20039;-80
2023/03/17 07:11:32;;;;;;;2.90;2.05;;;9.40;77.00;;;;;;4900000;29;20070;-81
2023/03/17 07:13:58;;;;;;;2.35;2.15;;;9.40;77.00;;;;;;4918536;29;20060;-81
2023/03/17 07:16:24;;;;;;;3.13;2.53;;;9.40;77.00;;;;;;4902914;29;20020;-81
2023/03/17 07:18:50;;;;;;;2.70;2.25;;;9.40;77.00;;;;;;4934101;29;20485;-81
2023/03/17 07:21:16;;;;;;;3.10;2.47;;;9.40;77.00;;;;;;4918485;29;20437;-81
2023/03/17 07:23:42;;;;;;;3.05;2.50;;;9.40;77.00;;;;;;4918328;29;20036;-82
2023/03/17 07:26:08;;;;;;;2.72;2.30;;;9.40;77.00;;;;;;4902613;29;20058;-85
2023/03/17 07:28:34;;;;;;;2.38;2.17;;;9.40;77.00;;;;;;4902545;29;20484;-80
2023/03/17 07:31:01;;;;;;;3.10;2.22;;;9.40;77.00;;;;;;4918955;29;20036;-80
2023/03/17 07:33:27;;;;;;;2.88;2.40;;;9.40;77.00;;;;;;4902246;29;20175;-80
2023/03/17 07:35:53;;;;;;;3.13;2.45;;;9.40;77.00;;;;;;4918228;29;20051;-80
2023/03/17 07:38:19;;;;;;;3.70;2.50;;;9.40;77.00;;;;;;4902434;29;20044;-80
2023/03/17 07:40:47;;;;;;;3.25;2.58;;;9.40;77.00;;;;;;4918246;29;20028;-81
2023/03/17 07:43:15;;;;;;;3.28;2.38;;;9.40;77.00;;;;;;4918022;29;20047;-82
2023/03/17 07:45:42;;;;;;;2.90;2.20;;;9.50;77.00;;;;;;4918134;29;20043;-81
2023/03/17 07:48:08;;;;;;;3.15;2.58;;;9.50;77.10;;;;;;4918389;29;20130;-81
2023/03/17 07:50:35;;;;;;;2.72;2.20;;;9.50;77.00;;;;;;4902181;29;20108;-81
2023/03/17 07:53:02;;;;;;;3.85;2.40;;;9.50;77.00;;;;;;4901840;29;20497;-81
2023/03/17 07:55:29;;;;;;;2.78;2.17;;;9.50;77.00;;;;;;4918871;29;20078;-81
2023/03/17 07:57:55;;;;;;;3.75;2.70;;;9.50;77.00;;;;;;4902148;29;20042;-80
2023/03/17 08:00:22;;;;;;;2.80;2.40;;;9.60;77.00;;;;;;4917410;29;20119;-81
2023/03/17 08:02:49;;;;;;;3.03;2.30;;;9.60;77.00;;;;;;4917422;29;20099;-80
2023/03/17 08:05:15;;;;;;;3.75;2.47;;;9.60;77.00;;;;;;4917840;29;20107;-83
2023/03/17 08:07:41;;;;;;;3.03;2.42;;;9.60;77.00;;;;;;4917255;29;20501;-85
2023/03/17 08:10:07;;;;;;;3.67;2.60;;;9.60;77.00;;;;;;4917566;29;20025;-81
2023/03/17 08:12:34;;;;;;;3.40;2.60;;;9.70;77.10;;;;;;4918456;29;20055;-80
2023/03/17 08:15:00;;;;;;;2.58;2.08;;;9.70;77.10;;;;;;4902484;29;20533;-81
2023/03/17 08:17:26;;;;;;;2.67;2.13;;;9.70;77.00;;;;;;4932945;29;20144;-80
2023/03/17 08:19:56;;;;;;;3.00;2.30;;;9.70;77.00;;;;;;4901487;29;20036;-81
2023/03/17 08:22:22;;;;;;;2.88;2.30;;;9.80;77.00;;;;;;4918760;29;20378;-81
2023/03/17 08:24:48;;;;;;;2.53;2.22;;;9.80;77.00;;;;;;4885952;29;20478;-80
2023/03/17 08:27:15;;;;;;;3.53;2.40;;;9.80;77.00;;;;;;4917090;29;20060;-82
2023/03/17 08:29:41;;;;;;;2.92;2.38;;;9.80;77.10;;;;;;4918815;29;20029;-80
2023/03/17 08:32:08;;;;;;;3.58;2.58;;;9.90;77.10;;;;;;4933625;29;20466;-80
2023/03/17 08:34:34;;;;;;;3.05;2.50;;;9.80;77.00;;;;;;4917114;29;20028;-80
2023/03/17 08:37:01;;;;;;;2.53;2.30;;;9.90;77.10;;;;;;4933489;29;20171;-81
2023/03/17 08:39:27;;;;;;;2.72;2.10;;;9.90;77.10;;;;;;4901328;29;20020;-81
2023/03/17 08:41:53;;;;;;;2.85;2.50;;;9.90;77.10;;;;;;4917191;29;20040;-81
2023/03/17 08:44:19;;;;;;;3.03;2.15;;;9.90;77.10;;;;;;4885216;29;20032;-80
2023/03/17 08:46:46;;;;;;;3.83;2.70;;;9.90;77.10;;;;;;4901119;29;20127;-84
2023/03/17 08:49:12;;;;;;;3.00;2.50;;;10.00;77.10;;;;;;4917714;29;20039;-83
2023/03/17 08:51:39;;;;;;;3.05;2.17;;;10.00;77.10;;;;;;4901044;29;20434;-80
2023/03/17 08:54:06;;;;;;;3.67;2.63;;;10.00;77.10;;;;;;4932629;29;20067;-80
2023/03/17 08:56:32;;;;;;;3.35;2.55;;;10.10;77.10;;;;;;4916822;29;20095;-81
2023/03/17 08:58:59;;;;;;;3.33;2.40;;;10.10;77.10;;;;;;4900877;29;20374;-80
2023/03/17 09:01:26;;;;;;;2.92;2.40;;;10.10;77.10;;;;;;4900923;29;20135;-81
2023/03/17 09:03:55;;;;;;;3.20;2.50;;;10.20;77.10;;;;;;4916352;29;20400;-80
2023/03/17 09:06:21;;;;;;;3.42;2.58;;;10.20;77.20;;;;;;4916981;29;20059;-81
2023/03/17 09:08:53;;;;;;;3.85;2.45;;;10.20;77.10;;;;;;4885311;29;20024;-79
2023/03/17 09:11:22;;;;;;;3.95;2.55;;;10.20;77.10;;;;;;4918292;29;20141;-80
2023/03/17 09:13:48;;;;;;;3.83;2.58;;;10.30;77.10;;;;;;4900411;29;20032;-81
2023/03/17 09:16:16;;;;;;;2.45;2.22;;;10.30;77.10;;;;;;4900785;29;20036;-80
2023/03/17 09:18:42;;;;;;;4.05;2.80;;;10.30;77.10;;;;;;4885116;29;20047;-81
2023/03/17 09:21:10;;;;;;;3.30;2.55;;;10.40;77.10;;;;;;4916275;29;20040;-79
2023/03/17 09:23:36;;;;;;;3.92;2.75;;;10.40;77.10;;;;;;4916990;29;20020;-79
2023/03/17 09:26:02;;;;;;;4.10;2.85;;;10.50;77.00;;;;;;4916187;29;20040;-82
2023/03/17 09:28:28;;;;;;;3.90;2.83;;;10.50;77.00;;;;;;4900473;29;20024;-79
2023/03/17 09:31:02;;;;;;;3.33;2.45;;;10.60;76.90;;;;;;4932787;29;20039;-80
2023/03/17 09:33:28;;;;;;;3.80;2.63;;;10.60;76.90;;;;;;4916368;29;20086;-80
2023/03/17 09:35:58;;;;;;;3.33;2.58;;;10.70;76.90;;;;;;4916836;29;20048;-80
2023/03/17 09:38:26;;;;;;;3.45;2.75;;;10.70;76.80;;;;;;4900019;29;20036;-81
2023/03/17 09:41:19;;;;;;;3.92;2.65;;;10.80;76.90;;;;;;4900050;29;20028;-83
2023/03/17 09:43:57;;;;;;;3.33;2.22;;;10.80;76.90;;;;;;4932336;29;20035;-83
2023/03/17 09:46:32;;;;;;;3.20;2.50;;;10.90;76.80;;;;;;4916410;29;20028;-82
2023/03/17 09:49:04;;;;;;;3.03;2.50;;;10.90;76.80;;;;;;4916332;29;20059;-80
2023/03/17 09:51:31;;;;;;;3.33;2.85;;;11.00;76.80;;;;;;4917446;29;20124;-80
2023/03/17 09:54:25;;;;;;;3.53;2.55;;;11.10;76.80;;;;;;4915763;29;20509;-79
2023/03/17 09:57:03;;;;;;;3.17;2.30;;;11.10;76.80;;;;;;4898933;29;20047;-80
2023/03/17 09:59:33;;;;;;;3.50;2.80;;;11.20;76.80;;;;;;4900375;29;20123;-79
2023/03/17 10:01:59;;;;;;;3.67;2.60;;;11.20;76.70;;;;;;4899618;29;20055;-82
2023/03/17 10:04:25;;;;;;;4.40;3.00;;;11.30;76.80;;;;;;4900814;29;20470;-79
2023/03/17 10:06:54;;;;;;;5.28;3.03;;;11.40;76.80;;;;;;4931415;29;20093;-79
2023/03/17 10:09:32;;;;;;;3.08;2.47;;;11.40;76.80;;;;;;4899438;29;20052;-80
2023/03/17 10:12:11;;;;;;;3.50;2.67;;;11.50;77.00;;;;;;4899589;29;20075;-81
2023/03/17 10:14:57;;;;;;;3.28;2.65;;;11.60;77.00;;;;;;4916670;29;20395;-80
2023/03/17 10:17:35;;;;;;;3.65;2.63;;;11.70;77.00;;;;;;4900200;29;20055;-84
2023/03/17 10:20:01;;;;;;;2.75;2.47;;;11.70;76.90;;;;;;4932189;29;20103;-83
2023/03/17 10:22:47;;;;;;;4.03;2.65;;;11.80;76.90;;;;;;4916325;29;20438;-81
2023/03/17 10:25:21;;;;;;;3.75;2.70;;;11.90;77.10;;;;;;4915416;29;20036;-83
2023/03/17 10:27:56;;;;;;;3.30;2.42;;;12.00;77.20;;;;;;4931696;29;20032;-80
2023/03/17 10:30:23;;;;;;;4.03;2.72;;;12.00;77.00;;;;;;4899770;29;20046;-81
2023/03/17 10:32:50;;;;;;;3.60;2.42;;;12.10;77.00;;;;;;4917032;29;20123;-81
2023/03/17 10:35:17;;;;;;;3.42;2.70;;;12.20;77.00;;;;;;4931080;29;20036;-85
2023/03/17 10:37:46;;;;;;;3.28;2.60;;;12.30;77.10;;;;;;4900207;29;20035;-82
2023/03/17 10:40:29;;;;;;;2.95;2.65;;;12.40;77.20;;;;;;4899856;29;20441;-84
2023/03/17 10:43:10;;;;;;;3.13;2.63;;;12.40;77.20;;;;;;4900075;29;20032;-85
2023/03/17 10:45:39;;;;;;;3.90;2.58;;;12.50;77.20;;;;;;4915578;29;20066;-83
2023/03/17 10:48:09;;;;;;;3.67;2.65;;;12.60;77.10;;;;;;4919815;29;20028;-83
2023/03/17 10:50:39;;;;;;;3.35;2.63;;;12.70;77.20;;;;;;4904297;29;20052;-82
2023/03/17 10:53:18;;;;;;;2.92;2.33;;;12.80;77.20;;;;;;4918582;29;20118;-86
2023/03/17 10:55:50;;;;;;;3.80;2.63;;;12.90;77.30;;;;;;4903529;29;20088;-83
2023/03/17 10:58:43;;;;;;;3.80;2.95;;;13.00;77.30;;;;;;4903087;29;20039;-84
2023/03/17 11:01:29;;;;;;;3.95;3.03;;;13.00;77.20;;;;;;4919176;29;20032;-86
2023/03/17 11:03:56;;;;;;;2.95;2.58;;;13.20;77.30;;;;;;4935029;29;20123;-81
2023/03/17 11:06:51;;;;;;;4.15;2.85;;;13.20;77.20;;;;;;4919876;29;20103;-82
2023/03/17 11:09:18;;;;;;;4.03;2.75;;;13.30;77.40;;;;;;4879393;29;20135;-83
2023/03/17 11:11:47;;;;;;;4.20;2.97;;;13.40;77.30;;;;;;4903343;29;20177;-86
2023/03/17 11:14:15;;;;;;;3.35;2.85;;;13.50;77.30;;;;;;4934747;29;20028;-84
2023/03/17 11:16:53;;;;;;;3.92;2.70;;;13.50;77.30;;;;;;4918810;29;20163;-82
2023/03/17 11:19:28;;;;;;;3.60;2.63;;;13.60;77.40;;;;;;4919117;29;20052;-84
2023/03/17 11:22:16;;;;;;;3.50;2.47;;;13.70;77.40;;;;;;4903473;29;20446;-85
2023/03/17 11:25:08;;;;;;;3.63;2.78;;;13.80;77.50;;;;;;4920590;29;20114;-85
2023/03/17 11:27:42;;;;;;;5.15;3.08;;;13.90;77.50;;;;;;4902772;29;20028;-83
2023/03/17 11:30:13;;;;;;;3.40;2.58;;;14.00;77.50;;;;;;4935092;29;20040;-83
2023/03/17 11:32:42;;;;;;;3.65;3.00;;;14.00;77.40;;;;;;4920615;29;20032;-81
2023/03/17 11:35:26;;;;;;;4.47;3.00;;;14.10;77.50;;;;;;4887299;29;20095;-83
2023/03/17 11:38:20;;;;;;;3.17;2.85;;;14.20;77.60;;;;;;4918385;29;20115;-82
2023/03/17 11:41:11;;;;;;;4.13;2.43;;;14.20;77.60;;;;;;4917928;29;20531;-81
2023/03/17 11:44:08;;;;;;;3.25;2.63;;;14.30;77.60;;;;;;4934385;29;20044;-81
2023/03/17 11:46:39;;;;;;;4.43;2.85;;;14.40;77.70;;;;;;4918279;29;20028;-83
2023/03/17 11:49:25;;;;;;;3.88;2.83;;;14.50;77.70;;;;;;4919199;29;20028;-82
2023/03/17 11:51:59;;;;;;;4.35;2.88;;;14.60;77.80;;;;;;4934266;29;20056;-83
2023/03/17 11:54:33;;;;;;;4.10;2.90;;;14.60;77.80;;;;;;4919047;29;20424;-82
2023/03/17 11:57:03;;;;;;;3.45;2.88;;;14.70;77.90;;;;;;4918490;29;20425;-84
2023/03/17 11:59:35;;;;;;;4.00;3.33;;;14.80;77.90;;;;;;4934061;29;20039;-84
2023/03/17 12:02:10;;;;;;;4.07;3.10;;;14.90;77.90;;;;;;4934380;29;20039;-82
2023/03/17 12:04:40;;;;;;;;;;;14.90;77.90;;;;;;4934362;29;20063;-83
2023/03/17 12:07:37;;;;;;;3.35;2.67;;;15.00;77.60;;;;;;4934208;29;19979;-83
2023/03/17 12:10:35;;;;;;;3.83;2.95;;;15.10;77.70;;;;;;4934618;29;20095;-83
2023/03/17 12:13:47;;;;;;;3.67;2.83;;;15.20;77.70;;;;;;4868458;29;20044;-83
2023/03/17 12:16:37;;;;;;;3.67;2.97;;;15.20;77.80;;;;;;4887453;29;20069;-84
2023/03/17 12:19:13;;;;;;;4.18;3.20;;;15.30;77.70;;;;;;4886704;29;20058;-83
2023/03/17 12:22:08;;;;;;;3.72;2.92;;;15.40;77.80;;;;;;4902315;29;20032;-84
2023/03/17 12:24:44;;;;;;;3.90;3.13;;;15.50;77.80;;;;;;4933681;29;20040;-84
2023/03/17 12:27:15;;;;;;;4.32;2.95;;;15.50;77.70;;;;;;4918044;29;20525;-84
2023/03/17 12:29:57;;;;;;;3.95;3.00;;;15.60;77.70;;;;;;4933437;29;20032;-83
2023/03/17 12:32:38;;;;;;;4.75;2.90;;;15.70;77.70;;;;;;4902257;29;20122;-84
2023/03/17 12:35:21;;;;;;;4.07;3.28;;;15.80;77.60;;;;;;4918630;29;20036;-84
2023/03/17 12:37:48;;;;;;;4.10;3.00;;;15.80;77.60;;;;;;4933563;29;20466;-83
2023/03/17 12:40:19;;;;;;;4.13;3.22;;;15.90;78.10;;;;;;4901295;29;20035;-83
2023/03/17 12:42:55;;;;;;;4.45;3.60;;;15.90;77.50;;;;;;4918312;29;20040;-85
2023/03/17 12:45:47;;;;;;;4.47;3.22;;;16.00;77.60;;;;;;4918679;29;20119;-84
2023/03/17 12:48:32;;;;;;;5.20;3.15;;;16.10;77.60;;;;;;4933322;29;20036;-84
2023/03/17 12:51:05;;;;;;;4.50;3.45;;;16.10;77.50;;;;;;4901498;29;20029;-82
2023/03/17 12:53:43;;;;;;;4.13;3.10;;;16.20;77.50;;;;;;4901261;29;20062;-83
2023/03/17 12:56:24;;;;;;;4.75;3.05;;;16.30;77.60;;;;;;4933049;29;20040;-83
2023/03/17 12:58:53;;;;;;;4.25;3.20;;;16.30;77.50;;;;;;4917956;29;20096;-83
2023/03/17 13:01:37;;;;;;;3.95;3.25;;;16.40;77.60;;;;;;4916917;29;20066;-84
2023/03/17 13:04:23;;;;;;;3.67;2.93;;;16.40;77.60;;;;;;4917195;29;20036;-84